Time;durP1;ratioP1;P1;durP2;ratioP2;P2;SDS_P1;SDS_P2;PMS_P1;PMS_P2;Temp;Humidity;BMP_temperature;BMP_pressure;BME280_temperature;BME280_humidity;BME280_pressure;Samples;Min_cycle;Max_cycle;Signal;HPM_P1;HPM_P2
2023/05/26 00:00:59;;;;;;;4.45;2.97;;;;;;;16.11;nan;52805.72;5030762;28;20234;-69
2023/05/26 00:03:27;;;;;;;6.03;2.80;;;;;;;16.05;nan;52936.50;5031282;28;20658;-71
2023/05/26 00:05:54;;;;;;;4.18;3.00;;;;;;;16.19;nan;52042.91;5030690;28;20187;-70
2023/05/26 00:08:21;;;;;;;4.13;2.83;;;;;;;16.08;nan;49863.34;5031602;28;20245;-71
2023/05/26 00:10:47;;;;;;;4.68;2.92;;;;;;;15.97;nan;49609.53;5030560;28;20728;-72
2023/05/26 00:13:12;;;;;;;3.78;2.83;;;;;;;15.97;nan;48384.53;5031262;28;20191;-71
2023/05/26 00:15:38;;;;;;;5.35;2.92;;;;;;;16.00;nan;48551.56;5029694;28;20187;-70
2023/05/26 00:18:05;;;;;;;4.75;3.00;;;;;;;15.76;nan;49387.59;5031014;28;20187;-72
2023/05/26 00:20:31;;;;;;;3.85;2.97;;;;;;;15.89;nan;47128.06;5029522;28;20630;-71
2023/05/26 00:22:56;;;;;;;4.45;3.10;;;;;;;15.93;nan;47200.94;5030823;28;20213;-71
2023/05/26 00:25:22;;;;;;;5.65;3.22;;;;;;;15.72;nan;42143.97;5029964;28;20728;-70
2023/05/26 00:27:48;;;;;;;4.63;2.88;;;;;;;15.39;nan;30476.41;5028850;28;20241;-70
2023/05/26 00:30:14;;;;;;;4.82;3.08;;;;;;;15.61;nan;35719.47;5030644;28;20270;-70
2023/05/26 00:32:39;;;;;;;4.03;2.90;;;;;;;15.62;nan;32777.06;5029561;28;20279;-71
2023/05/26 00:35:05;;;;;;;4.65;3.03;;;;;;;15.04;nan;31107.44;5030981;28;20179;-70
2023/05/26 00:37:31;;;;;;;6.63;3.10;;;;;;;15.46;nan;32440.13;5029178;28;20187;-69
2023/05/26 00:39:56;;;;;;;8.68;2.97;;;;;;;15.54;nan;29505.53;5030014;28;20190;-71
2023/05/26 00:42:22;;;;;;;5.57;3.40;;;;;;;15.48;nan;31461.41;5031024;28;20222;-71
2023/05/26 00:44:51;;;;;;;5.43;2.97;;;;;;;15.56;nan;32773.13;5030375;28;20226;-71
2023/05/26 00:47:16;;;;;;;6.78;3.25;;;;;;;15.54;nan;34733.13;5030456;28;20558;-71
2023/05/26 00:49:42;;;;;;;4.80;3.20;;;;;;;15.52;nan;32444.06;5029670;28;20207;-70
2023/05/26 00:52:08;;;;;;;5.32;3.28;;;;;;;15.04;nan;27193.66;5034816;28;20188;-71
2023/05/26 00:54:35;;;;;;;4.90;3.13;;;;;;;15.21;nan;23943.56;5034647;28;20269;-70
2023/05/26 00:57:00;;;;;;;5.50;3.20;;;;;;;15.00;nan;19702.47;5034281;28;20190;-70
2023/05/26 00:59:26;;;;;;;4.53;3.20;;;;;;;15.44;nan;22652.06;5065859;28;20282;-70
2023/05/26 01:01:52;;;;;;;4.45;3.08;;;;;;;15.07;nan;21006.63;5033464;28;20203;-71
2023/05/26 01:04:18;;;;;;;7.22;3.38;;;;;;;14.99;nan;19376.81;5033951;28;20171;-70
2023/05/26 01:06:46;;;;;;;6.15;3.50;;;;;;;15.03;nan;19378.56;5034335;28;20210;-70
2023/05/26 01:09:12;;;;;;;5.68;3.33;;;;;;;15.13;nan;19382.69;5034786;28;20186;-70
2023/05/26 01:11:57;;;;;;;6.60;3.35;;;;;;;15.17;nan;18734.13;5033478;28;20207;-70
2023/05/26 01:14:35;;;;;;;5.88;3.38;;;;;;;15.20;nan;18409.97;5033163;28;20211;-70
2023/05/26 01:17:12;;;;;;;6.00;3.35;;;;;;;15.06;nan;16453.91;5034206;28;20183;-70
2023/05/26 01:20:17;;;;;;;6.00;3.33;;;;;;;14.79;nan;16443.88;5034064;28;20190;-70
2023/05/26 01:22:45;;;;;;;5.20;2.97;;;;;;;15.14;nan;16782.00;5030765;28;20203;-70
2023/05/26 01:25:56;;;;;;;4.47;3.03;;;;;;;15.14;nan;18082.31;5032900;28;20638;-71
2023/05/26 01:28:25;;;;;;;4.85;2.90;;;;;;;14.86;nan;17421.03;5032549;28;20179;-71
2023/05/26 01:30:52;;;;;;;4.15;3.10;;;;;;;14.72;nan;17740.25;5033829;28;20179;-71
2023/05/26 01:33:18;;;;;;;5.13;3.40;;;;;;;14.94;nan;17424.25;5033921;28;20183;-70
2023/05/26 01:35:44;;;;;;;6.47;3.58;;;;;;;14.69;nan;14491.94;5034333;28;20190;-70
2023/05/26 01:38:10;;;;;;;4.65;3.00;;;;;;;14.60;nan;15138.00;5033368;28;20192;-71
2023/05/26 01:40:41;;;;;;;4.60;2.85;;;;;;;14.90;nan;16448.13;5031950;28;20236;-70
2023/05/26 01:43:06;;;;;;;4.43;3.22;;;;;;;14.91;nan;16448.31;5033448;28;20365;-70
2023/05/26 01:45:49;;;;;;;6.70;3.45;;;;;;;14.82;nan;15470.56;5034179;28;20689;-70
2023/05/26 01:48:16;;;;;;;5.70;3.20;;;;;;;14.49;nan;14809.50;5026393;28;20290;-71
2023/05/26 01:50:49;;;;;;;7.70;3.42;;;;;;;14.40;nan;10267.38;5033379;28;20673;-71
2023/05/26 01:53:17;;;;;;;7.18;3.22;;;;;;;14.78;nan;9954.00;5034364;28;20187;-70
2023/05/26 01:55:44;;;;;;;5.28;3.10;;;;;;;14.89;nan;12876.13;5032687;28;20176;-71
2023/05/26 01:58:11;;;;;;;3.58;2.50;;;;;;;14.87;nan;12226.56;5031688;28;20266;-71
2023/05/26 02:00:45;;;;;;;4.90;3.22;;;;;;;14.53;nan;12215.97;5033879;28;20233;-71
2023/05/26 02:03:11;;;;;;;7.38;3.22;;;;;;;14.78;nan;10926.47;5031822;28;20626;-70
2023/05/26 02:05:36;;;;;;;3.30;2.80;;;;;;;14.78;nan;10278.03;5033546;28;20187;-71
2023/05/26 02:08:02;;;;;;;7.70;3.15;;;;;;;14.60;nan;8329.09;5031670;28;20650;-70
2023/05/26 02:10:28;;;;;;;4.25;2.78;;;;;;;14.34;nan;7998.75;5033437;28;20222;-71
2023/05/26 02:12:53;;;;;;;4.45;2.90;;;;;;;14.28;nan;7673.59;5033133;28;20614;-71
2023/05/26 02:15:18;;;;;;;5.70;3.40;;;;;;;14.51;nan;6707.94;5033139;28;20241;-71
2023/05/26 02:17:44;;;;;;;5.40;3.63;;;;;;;14.13;nan;5082.41;5031536;28;20187;-70
2023/05/26 02:20:10;;;;;;;6.40;3.45;;;;;;;14.11;nan;4112.19;5032605;28;20194;-71
2023/05/26 02:22:36;;;;;;;9.82;3.63;;;;;;;14.28;nan;3145.38;5028612;28;20218;-71
2023/05/26 02:25:02;;;;;;;9.15;3.72;;;;;;;14.16;nan;1851.16;5032042;28;20175;-70
2023/05/26 02:27:27;;;;;;;6.50;4.07;;;;;;;14.27;nan;2175.78;5033877;28;20168;-70
2023/05/26 02:29:53;;;;;;;7.95;3.90;;;;;;;14.22;nan;1528.91;5032084;28;20322;-70
2023/05/26 02:32:18;;;;;;;6.00;3.53;;;;;;;14.24;nan;883.16;5032942;28;20272;-70
2023/05/26 02:34:44;;;;;;;12.02;4.18;;;;;;;13.88;nan;233.03;5033095;28;20191;-71
2023/05/26 02:37:09;;;;;;;6.18;3.90;;;;;;;14.15;nan;-409.44;5064184;28;20221;-69
2023/05/26 02:39:35;;;;;;;8.82;4.45;;;;;;;14.06;nan;-1701.22;5032854;28;20221;-70
2023/05/26 02:42:01;;;;;;;6.38;4.22;;;;;;;13.94;nan;-2669.81;5032516;28;20203;-71
2023/05/26 02:44:26;;;;;;;9.57;4.47;;;;;;;13.79;nan;-2348.47;5031775;28;20183;-69
2023/05/26 02:46:51;;;;;;;6.88;4.07;;;;;;;13.48;nan;-4605.88;5031368;28;20677;-70
2023/05/26 02:49:17;;;;;;;5.90;3.75;;;;;;;13.42;nan;-10397.16;5032634;28;20180;-71
2023/05/26 02:51:42;;;;;;;7.18;3.88;;;;;;;13.33;nan;-16176.53;5032030;28;20188;-71
2023/05/26 02:54:08;;;;;;;5.85;3.70;;;;;;;13.45;nan;-17140.94;5033293;28;20203;-71
2023/05/26 02:56:33;;;;;;;5.80;3.90;;;;;;;13.25;nan;-17137.63;5033375;28;20199;-71
2023/05/26 02:58:59;;;;;;;4.68;3.28;;;;;;;13.61;nan;-16180.75;5031715;28;20201;-70
2023/05/26 03:01:25;;;;;;;6.95;3.90;;;;;;;13.51;nan;-16500.13;5031749;28;20602;-71
2023/05/26 03:03:50;;;;;;;6.55;4.05;;;;;;;13.54;nan;-17463.16;5031733;28;20187;-71
2023/05/26 03:06:16;;;;;;;5.95;3.65;;;;;;;13.40;nan;-17460.84;5032028;28;20176;-71
2023/05/26 03:08:41;;;;;;;7.10;3.88;;;;;;;13.50;nan;-16500.00;5032603;28;20263;-71
2023/05/26 03:11:07;;;;;;;6.85;4.15;;;;;;;13.72;nan;-16503.41;5030474;28;20180;-71
2023/05/26 03:13:32;;;;;;;8.48;4.22;;;;;;;13.60;nan;-16180.59;5031719;28;20280;-71
2023/05/26 03:15:58;;;;;;;6.00;3.63;;;;;;;13.67;nan;-15539.59;5030709;28;20225;-72
2023/05/26 03:18:23;;;;;;;7.45;4.05;;;;;;;13.83;nan;-15541.81;5031532;28;20180;-72
2023/05/26 03:20:48;;;;;;;5.70;3.90;;;;;;;13.62;nan;-15538.88;5032473;28;20183;-71
2023/05/26 03:23:17;;;;;;;5.35;3.55;;;;;;;13.75;nan;-15219.50;5032090;28;20317;-71
2023/05/26 03:25:42;;;;;;;6.00;3.80;;;;;;;13.68;nan;-14897.59;5031808;28;20191;-72
2023/05/26 03:28:08;;;;;;;7.55;4.00;;;;;;;13.66;nan;-15218.44;5031347;28;20213;-71
2023/05/26 03:30:33;;;;;;;7.50;4.10;;;;;;;14.01;nan;-13937.72;5030804;28;20180;-71
2023/05/26 03:33:00;;;;;;;7.07;2.85;;;;;;;13.72;nan;-14898.03;5031952;28;20213;-70
2023/05/26 03:35:26;;;;;;;6.50;4.13;;;;;;;13.78;nan;-14898.81;5032080;28;20564;-70
2023/05/26 03:38:07;;;;;;;7.35;3.92;;;;;;;13.83;nan;-16184.03;5032341;28;20236;-72
2023/05/26 03:40:33;;;;;;;5.40;3.63;;;;;;;13.74;nan;-16824.69;5024155;28;20240;-70
2023/05/26 03:42:58;;;;;;;10.00;3.60;;;;;;;13.65;nan;-16823.25;5031936;28;20700;-71
2023/05/26 03:45:24;;;;;;;6.20;3.70;;;;;;;13.76;nan;-15861.84;5031001;28;20190;-71
2023/05/26 03:47:49;;;;;;;5.57;4.10;;;;;;;13.83;nan;-15220.66;5030218;28;20194;-71
2023/05/26 03:50:15;;;;;;;5.25;3.72;;;;;;;13.79;nan;-14256.44;5031151;28;20277;-71
2023/05/26 03:52:40;;;;;;;7.25;3.58;;;;;;;13.90;nan;-13293.69;5029274;28;20670;-71
2023/05/26 03:55:09;;;;;;;6.63;3.83;;;;;;;14.22;nan;-13296.97;5031549;28;20228;-71
2023/05/26 03:57:35;;;;;;;6.47;4.10;;;;;;;14.02;nan;-11687.19;5031393;28;20657;-71
2023/05/26 04:00:03;;;;;;;7.15;4.18;;;;;;;14.30;nan;-11367.50;5030754;28;20246;-72
2023/05/26 04:02:45;;;;;;;12.38;3.85;;;;;;;14.26;nan;-10723.59;5030534;28;20206;-70
2023/05/26 04:05:10;;;;;;;5.70;3.78;;;;;;;14.44;nan;-10402.75;5031401;28;20210;-70
2023/05/26 04:07:35;;;;;;;7.05;4.38;;;;;;;14.52;nan;-10081.13;5030053;28;20610;-71
2023/05/26 04:10:01;;;;;;;6.32;3.92;;;;;;;14.52;nan;-7181.47;5030572;28;20680;-72
2023/05/26 04:12:27;;;;;;;6.35;3.78;;;;;;;14.80;nan;-2663.69;5030648;28;20658;-72
2023/05/26 04:14:52;;;;;;;6.55;3.85;;;;;;;14.88;nan;891.38;5030769;28;20190;-72
2023/05/26 04:17:18;;;;;;;6.65;4.07;;;;;;;15.18;nan;248.41;5030654;28;20314;-73
2023/05/26 04:19:43;;;;;;;7.28;3.78;;;;;;;15.29;nan;249.72;5030284;28;20193;-71
2023/05/26 04:22:09;;;;;;;6.00;3.55;;;;;;;15.32;nan;4134.19;5029925;28;20211;-73
2023/05/26 04:24:34;;;;;;;9.63;4.10;;;;;;;15.54;nan;6082.63;5028327;28;21163;-72
2023/05/26 04:27:01;;;;;;;6.90;3.72;;;;;;;15.63;nan;8030.34;5029663;28;20341;-70
2023/05/26 04:29:27;;;;;;;6.00;3.47;;;;;;;15.75;nan;10955.00;5027899;28;20680;-70
2023/05/26 04:31:52;;;;;;;7.05;3.70;;;;;;;15.56;nan;11923.53;5030367;28;20239;-70
2023/05/26 04:34:21;;;;;;;6.80;3.90;;;;;;;15.88;nan;11283.72;5027944;28;20202;-71
2023/05/26 04:36:48;;;;;;;7.32;4.03;;;;;;;15.93;nan;10960.19;5028225;28;20226;-73
2023/05/26 04:39:14;;;;;;;7.20;3.70;;;;;;;15.85;nan;9334.28;5023927;28;20215;-71
2023/05/26 04:41:41;;;;;;;4.93;3.42;;;;;;;16.00;nan;12912.22;5030907;28;20332;-69
2023/05/26 04:44:07;;;;;;;5.32;3.78;;;;;;;16.01;nan;15839.66;5030643;28;20624;-70
2023/05/26 04:46:37;;;;;;;6.85;3.35;;;;;;;16.27;nan;8046.09;5028650;28;20218;-68
2023/05/26 04:49:07;;;;;;;6.22;3.60;;;;;;;16.27;nan;9670.38;5031028;28;20234;-68
2023/05/26 04:51:32;;;;;;;6.07;3.45;;;;;;;16.21;nan;16498.25;5029938;28;20191;-70
2023/05/26 04:53:58;;;;;;;7.22;3.67;;;;;;;16.36;nan;18458.22;5030862;28;20174;-69
2023/05/26 04:56:25;;;;;;;5.05;3.55;;;;;;;16.32;nan;21716.34;5029766;28;20188;-68
2023/05/26 04:58:51;;;;;;;7.75;3.90;;;;;;;16.30;nan;17804.38;5031597;28;20229;-69
2023/05/26 05:01:17;;;;;;;5.50;3.45;;;;;;;16.49;nan;22050.41;5030286;28;20219;-69
2023/05/26 05:03:43;;;;;;;4.10;2.95;;;;;;;16.79;nan;24023.53;5015288;28;20172;-68
2023/05/26 05:06:10;;;;;;;6.80;3.15;;;;;;;16.85;nan;25986.66;5029176;28;20191;-70
2023/05/26 05:08:37;;;;;;;5.10;3.22;;;;;;;16.92;nan;26317.63;5029964;28;20207;-69
2023/05/26 05:11:03;;;;;;;6.32;3.25;;;;;;;16.87;nan;26968.66;5030286;28;20277;-70
2023/05/26 05:13:29;;;;;;;5.55;3.63;;;;;;;17.07;nan;28615.13;5029373;28;20662;-69
2023/05/26 05:15:55;;;;;;;6.20;3.75;;;;;;;17.27;nan;32556.47;5029273;28;20655;-70
2023/05/26 05:18:20;;;;;;;4.50;3.40;;;;;;;17.64;nan;32580.63;5030046;28;20206;-71
2023/05/26 05:20:46;;;;;;;6.25;3.30;;;;;;;17.73;nan;39602.97;5029898;28;20182;-68
2023/05/26 05:23:11;;;;;;;5.60;3.03;;;;;;;18.03;nan;48102.81;5029839;28;21038;-70
2023/05/26 05:25:37;;;;;;;5.70;3.10;;;;;;;18.20;nan;45869.91;5029872;28;20179;-67
2023/05/26 05:28:02;;;;;;;5.72;3.40;;;;;;;18.05;nan;47929.97;5030455;28;20186;-71
2023/05/26 05:30:28;;;;;;;5.82;3.42;;;;;;;18.34;nan;48151.63;5029652;28;20179;-68
2023/05/26 05:32:54;;;;;;;9.13;3.40;;;;;;;18.45;nan;49233.31;5030426;28;20185;-67
2023/05/26 05:35:19;;;;;;;7.57;3.80;;;;;;;18.77;nan;51055.94;5028156;28;20179;-70
2023/05/26 05:37:45;;;;;;;4.75;3.45;;;;;;;19.00;nan;52779.06;5031151;28;20214;-72
2023/05/26 05:40:11;;;;;;;5.18;3.47;;;;;;;19.23;nan;53659.66;5034668;28;20301;-69
2023/05/26 05:42:36;;;;;;;4.40;3.13;;;;;;;19.18;nan;54610.38;5033167;28;20207;-70
2023/05/26 05:45:03;;;;;;;5.85;3.40;;;;;;;19.55;nan;54794.97;5029956;28;20176;-72
2023/05/26 05:47:29;;;;;;;6.88;3.20;;;;;;;19.92;nan;55813.22;5028066;28;20177;-72
2023/05/26 05:49:54;;;;;;;6.97;3.33;;;;;;;20.43;nan;57097.06;5030359;28;20187;-70
2023/05/26 05:52:19;;;;;;;6.63;3.33;;;;;;;20.75;nan;58476.56;5030406;28;20187;-71
2023/05/26 05:54:45;;;;;;;5.05;3.13;;;;;;;21.10;nan;59817.19;5026282;28;20237;-74
2023/05/26 05:57:10;;;;;;;4.53;3.17;;;;;;;21.27;nan;60061.94;5033952;28;20237;-72
2023/05/26 05:59:36;;;;;;;6.35;3.30;;;;;;;21.32;nan;60212.41;5033991;28;20314;-68
2023/05/26 06:02:01;;;;;;;4.75;3.35;;;;;;;21.04;nan;60244.22;5034167;28;20196;-71
2023/05/26 06:04:27;;;;;;;5.32;3.17;;;;;;;20.79;nan;60346.84;5033123;28;20587;-71
2023/05/26 06:06:52;;;;;;;5.50;3.30;;;;;;;20.76;nan;60281.22;5034123;28;20617;-71
2023/05/26 06:09:18;;;;;;;5.13;3.10;;;;;;;20.42;nan;60435.44;5033670;28;20215;-71
2023/05/26 06:11:43;;;;;;;5.13;3.42;;;;;;;20.16;nan;60549.69;5033971;28;20662;-71
2023/05/26 06:14:09;;;;;;;4.85;3.50;;;;;;;20.09;nan;60541.84;5034165;28;20193;-71
2023/05/26 06:16:34;;;;;;;6.50;3.92;;;;;;;20.00;nan;60378.84;5034206;28;20175;-71
2023/05/26 06:18:59;;;;;;;6.35;4.15;;;;;;;20.05;nan;60226.81;5033915;28;20182;-71
2023/05/26 06:21:25;;;;;;;6.68;4.07;;;;;;;19.76;nan;60132.44;5033237;28;20631;-71
2023/05/26 06:23:52;;;;;;;6.65;3.97;;;;;;;19.95;nan;60139.97;5034514;28;20195;-71
2023/05/26 06:26:18;;;;;;;5.93;3.38;;;;;;;19.88;nan;60023.94;5034149;28;20187;-70
2023/05/26 06:28:43;;;;;;;4.88;3.30;;;;;;;19.81;nan;59832.19;5033764;28;20179;-70
2023/05/26 06:31:08;;;;;;;3.80;3.05;;;;;;;19.70;nan;59783.75;5034358;28;20176;-70
2023/05/26 06:33:34;;;;;;;3.45;2.88;;;;;;;19.98;nan;60187.38;5032600;28;20171;-70
2023/05/26 06:35:59;;;;;;;5.90;3.20;;;;;;;19.79;nan;60252.94;5033432;28;20709;-71
2023/05/26 06:38:25;;;;;;;5.30;3.28;;;;;;;19.61;nan;60097.66;5032969;28;20175;-70
2023/05/26 06:40:50;;;;;;;4.80;3.03;;;;;;;19.69;nan;60013.25;5033088;28;20604;-71
2023/05/26 06:43:16;;;;;;;3.88;2.60;;;;;;;19.65;nan;59716.09;5033601;28;20230;-70
2023/05/26 06:45:41;;;;;;;4.60;3.03;;;;;;;18.97;nan;58920.91;5033102;28;20645;-71
2023/05/26 06:48:07;;;;;;;4.32;2.95;;;;;;;18.88;nan;58404.13;5032854;28;20179;-71
2023/05/26 06:50:32;;;;;;;3.83;2.60;;;;;;;17.55;nan;58633.78;5032043;28;20193;-71
2023/05/26 06:52:57;;;;;;;5.57;3.15;;;;;;;18.68;nan;58108.44;5032274;28;20647;-70
2023/05/26 06:55:23;;;;;;;4.10;2.85;;;;;;;18.42;nan;56572.09;5033258;28;20187;-70
2023/05/26 06:57:48;;;;;;;3.88;2.88;;;;;;;18.55;nan;55453.78;5032813;28;20278;-71
2023/05/26 07:00:14;;;;;;;4.40;2.95;;;;;;;18.47;nan;53669.72;5033171;28;20221;-70
2023/05/26 07:02:40;;;;;;;4.88;3.38;;;;;;;19.14;nan;56475.50;5033092;28;20198;-72
2023/05/26 07:05:08;;;;;;;4.40;2.97;;;;;;;19.70;nan;57745.31;5032803;28;20668;-71
2023/05/26 07:07:33;;;;;;;5.60;3.00;;;;;;;20.28;nan;59053.72;5032524;28;20191;-71
2023/05/26 07:09:59;;;;;;;5.45;3.15;;;;;;;19.97;nan;59294.63;5033108;28;20260;-70
2023/05/26 07:12:24;;;;;;;4.18;2.88;;;;;;;19.96;nan;58931.28;5031811;28;20183;-71
2023/05/26 07:14:50;;;;;;;3.92;2.67;;;;;;;20.26;nan;59432.66;5032343;28;20176;-71
2023/05/26 07:17:15;;;;;;;4.25;2.50;;;;;;;20.42;nan;60261.63;5031389;28;20671;-72
2023/05/26 07:19:41;;;;;;;4.63;2.97;;;;;;;20.06;nan;60222.75;5031473;28;20209;-71
2023/05/26 07:22:06;;;;;;;4.32;2.60;;;;;;;19.81;nan;60014.13;5032313;28;20191;-72
2023/05/26 07:24:31;;;;;;;3.50;2.40;;;;;;;19.76;nan;59886.81;5032914;28;20179;-72
2023/05/26 07:26:57;;;;;;;5.40;2.75;;;;;;;20.10;nan;60260.91;5033183;28;20175;-71
2023/05/26 07:29:22;;;;;;;5.25;2.88;;;;;;;20.25;nan;60630.28;5030478;28;20245;-72
2023/05/26 07:31:48;;;;;;;4.53;2.65;;;;;;;20.64;nan;60446.94;5032434;28;20183;-72
2023/05/26 07:34:13;;;;;;;4.65;3.08;;;;;;;20.44;nan;60248.28;5032511;28;20199;-71
2023/05/26 07:36:38;;;;;;;7.25;2.95;;;;;;;20.71;nan;60392.47;5031420;28;20249;-71
2023/05/26 07:39:04;;;;;;;4.05;2.60;;;;;;;20.77;nan;60157.72;5031764;28;20194;-71
2023/05/26 07:41:30;;;;;;;8.40;3.47;;;;;;;17.34;nan;60430.53;5032578;28;20634;-71
2023/05/26 07:43:55;;;;;;;4.75;2.75;;;;;;;21.02;nan;60411.34;5031929;28;20274;-71
2023/05/26 07:46:21;;;;;;;5.07;2.92;;;;;;;21.27;nan;60640.72;5031976;28;20642;-72
2023/05/26 07:48:47;;;;;;;4.47;3.00;;;;;;;21.39;nan;60862.00;5031797;28;20262;-72
2023/05/26 07:51:13;;;;;;;4.68;2.75;;;;;;;22.03;nan;60798.44;5032215;28;20187;-72
2023/05/26 07:53:39;;;;;;;4.07;2.88;;;;;;;22.45;nan;60935.97;5032512;28;20179;-71
2023/05/26 07:56:04;;;;;;;4.82;2.63;;;;;;;22.60;nan;61167.78;5031081;28;20234;-72
2023/05/26 07:58:30;;;;;;;4.45;2.53;;;;;;;22.61;nan;61291.88;5030335;28;20214;-71
2023/05/26 08:00:55;;;;;;;3.90;2.80;;;;;;;22.54;nan;61414.19;5030457;28;20234;-74
2023/05/26 08:03:20;;;;;;;3.75;2.30;;;;;;;22.25;nan;61308.59;5032280;28;20747;-72
2023/05/26 08:05:47;;;;;;;4.20;2.28;;;;;;;22.25;nan;61316.41;5032273;28;20257;-71
2023/05/26 08:08:12;;;;;;;4.57;2.90;;;;;;;22.31;nan;61419.50;5031043;28;20221;-71
2023/05/26 08:10:37;;;;;;;5.07;3.20;;;;;;;22.25;nan;61322.19;5031596;28;20179;-72
2023/05/26 08:13:03;;;;;;;6.32;2.50;;;;;;;;;;5032132;28;20179;-71
2023/05/26 08:15:28;;;;;;;5.47;3.22;;;;;;;22.77;nan;61494.31;5030625;28;20294;-71
2023/05/26 08:17:53;;;;;;;5.32;3.22;;;;;;;22.57;nan;61320.66;5031806;28;20652;-72
2023/05/26 08:20:19;;;;;;;5.95;2.75;;;;;;;22.69;nan;61336.78;5031679;28;20179;-72
2023/05/26 08:22:45;;;;;;;4.47;2.83;;;;;;;22.73;nan;61490.34;5030478;28;20629;-72
2023/05/26 08:25:12;;;;;;;4.55;2.90;;;;;;;23.04;nan;61449.22;5032210;28;20186;-71
2023/05/26 08:27:38;;;;;;;3.38;2.60;;;;;;;23.10;nan;61523.19;5031024;28;20217;-71
2023/05/26 08:30:03;;;;;;;4.30;2.60;;;;;;;23.32;nan;61584.56;5031376;28;20175;-70
2023/05/26 08:32:29;;;;;;;3.10;2.40;;;;;;;23.50;nan;61591.88;5031031;28;20209;-71
2023/05/26 08:34:54;;;;;;;3.88;2.65;;;;;;;23.47;nan;61726.72;5031072;28;20317;-71
2023/05/26 08:37:20;;;;;;;3.30;2.50;;;;;;;23.65;nan;61937.00;5031992;28;20203;-71
2023/05/26 08:39:45;;;;;;;3.70;2.53;;;;;;;23.47;nan;61904.09;5030591;28;20654;-71
2023/05/26 08:42:17;;;;;;;5.03;2.83;;;;;;;24.22;nan;62048.25;5031368;28;20242;-72
2023/05/26 08:44:44;;;;;;;3.85;2.67;;;;;;;24.20;nan;62155.66;5029634;28;20197;-72
2023/05/26 08:47:11;;;;;;;4.13;3.13;;;;;;;24.19;nan;61982.72;5031055;28;20183;-71
2023/05/26 08:49:42;;;;;;;4.43;2.67;;;;;;;24.28;nan;62242.56;5029841;28;20223;-72
2023/05/26 08:52:10;;;;;;;3.72;2.60;;;;;;;24.33;nan;62068.59;5029565;28;20175;-71
2023/05/26 08:54:36;;;;;;;5.32;3.13;;;;;;;24.17;nan;62111.03;5031254;28;20175;-72
2023/05/26 08:57:03;;;;;;;4.85;2.95;;;;;;;23.24;nan;62083.94;5030051;28;20233;-72
2023/05/26 08:59:29;;;;;;;4.70;2.92;;;;;;;23.08;nan;62073.53;5031038;28;20654;-72
2023/05/26 09:01:56;;;;;;;6.85;3.53;;;;;;;23.21;nan;62004.91;5031438;28;20266;-71
2023/05/26 09:04:21;;;;;;;4.28;3.20;;;;;;;23.46;nan;62028.16;5031309;28;20550;-72
2023/05/26 09:06:47;;;;;;;6.53;3.95;;;;;;;23.48;nan;62019.44;5030690;28;20182;-72
2023/05/26 09:09:13;;;;;;;5.55;3.97;;;;;;;23.33;nan;61961.75;5030550;28;20183;-71
2023/05/26 09:11:43;;;;;;;6.55;3.83;;;;;;;23.47;nan;62099.72;5031403;28;20190;-72
2023/05/26 09:14:13;;;;;;;6.45;4.20;;;;;;;23.67;nan;62132.38;5032714;28;20646;-72
2023/05/26 09:16:38;;;;;;;8.60;3.95;;;;;;;23.93;nan;62114.44;5033671;28;20183;-71
2023/05/26 09:19:04;;;;;;;8.02;3.80;;;;;;;24.37;nan;62104.47;5034947;28;20183;-71
2023/05/26 09:21:30;;;;;;;6.50;3.72;;;;;;;24.59;nan;62171.34;5034379;28;20175;-72
2023/05/26 09:23:58;;;;;;;7.65;3.50;;;;;;;24.69;nan;62375.59;5034255;28;20186;-72
2023/05/26 09:26:35;;;;;;;7.35;3.60;;;;;;;24.98;nan;62246.63;5035140;28;20188;-72
2023/05/26 09:29:02;;;;;;;7.88;3.17;;;;;;;25.40;nan;62280.88;5034284;28;20194;-71
2023/05/26 09:31:44;;;;;;;6.00;3.22;;;;;;;25.41;nan;62300.34;5033648;28;20302;-71
2023/05/26 09:34:10;;;;;;;5.93;2.95;;;;;;;25.35;nan;62314.41;5028332;28;20179;-73
2023/05/26 09:36:37;;;;;;;4.35;3.13;;;;;;;25.21;nan;62371.13;5032986;28;20175;-70
2023/05/26 09:39:05;;;;;;;5.53;3.40;;;;;;;25.06;nan;62372.88;5034052;28;20191;-71
2023/05/26 09:41:37;;;;;;;4.97;3.05;;;;;;;25.08;nan;62346.38;5033146;28;20215;-71
2023/05/26 09:44:10;;;;;;;6.85;3.03;;;;;;;24.51;nan;62175.28;5033197;28;20320;-71
2023/05/26 09:46:37;;;;;;;4.20;3.00;;;;;;;24.44;nan;62258.19;5032712;28;20179;-71
2023/05/26 09:49:12;;;;;;;4.68;2.72;;;;;;;24.18;nan;62283.97;5033837;28;20190;-72
2023/05/26 09:51:39;;;;;;;5.45;3.42;;;;;;;24.18;nan;62229.66;5032961;28;20276;-71
2023/05/26 09:54:05;;;;;;;6.07;3.30;;;;;;;24.13;nan;62293.91;5034503;28;20175;-72
2023/05/26 09:56:34;;;;;;;4.85;2.80;;;;;;;24.46;nan;62242.75;5034343;28;20191;-71
2023/05/26 09:59:03;;;;;;;3.95;2.70;;;;;;;24.49;nan;62314.13;5034136;28;20179;-70
2023/05/26 10:01:29;;;;;;;4.47;2.80;;;;;;;24.69;nan;62273.66;5034899;28;20349;-70
2023/05/26 10:03:55;;;;;;;5.03;3.55;;;;;;;24.71;nan;62325.03;5032776;28;20672;-71
2023/05/26 10:06:21;;;;;;;4.47;3.08;;;;;;;25.15;nan;62299.47;5034795;28;20179;-71
2023/05/26 10:08:52;;;;;;;5.30;2.45;;;;;;;24.80;nan;62243.81;5033177;28;20187;-70
2023/05/26 10:11:20;;;;;;;5.40;2.65;;;;;;;24.61;nan;62322.59;5034887;28;20175;-70
2023/05/26 10:13:46;;;;;;;4.47;2.30;;;;;;;24.68;nan;62303.31;5034315;28;20595;-70
2023/05/26 10:16:12;;;;;;;2.83;2.17;;;;;;;24.73;nan;62314.25;5033317;28;20657;-70
2023/05/26 10:18:38;;;;;;;2.80;2.20;;;;;;;24.84;nan;62269.84;5033284;28;20167;-72
2023/05/26 10:21:08;;;;;;;3.85;2.10;;;;;;;25.11;nan;62419.88;5033099;28;20262;-71
2023/05/26 10:23:44;;;;;;;3.20;2.38;;;;;;;25.22;nan;62285.94;5032617;28;20673;-71
2023/05/26 10:26:19;;;;;;;2.95;2.28;;;;;;;;;;5033276;28;20187;-70
2023/05/26 10:29:00;;;;;;;3.33;2.25;;;;;;;25.16;nan;62295.34;5032812;28;20257;-71
2023/05/26 10:31:33;;;;;;;3.88;2.20;;;;;;;25.24;nan;62309.72;5029116;28;20553;-71
2023/05/26 10:33:59;;;;;;;3.28;2.05;;;;;;;25.29;nan;62357.28;5025245;28;20226;-71
2023/05/26 10:36:26;;;;;;;2.72;1.98;;;;;;;25.28;nan;62531.44;5033197;28;20179;-70
2023/05/26 10:38:52;;;;;;;4.35;2.40;;;;;;;25.59;nan;62348.53;5033403;28;20658;-71
2023/05/26 10:41:32;;;;;;;2.70;2.00;;;;;;;25.55;nan;62470.19;5032674;28;20600;-71
2023/05/26 10:44:02;;;;;;;2.65;2.00;;;;;;;25.69;nan;62418.13;5024173;28;20179;-71
2023/05/26 10:46:46;;;;;;;3.03;2.10;;;;;;;25.51;nan;62507.47;5028818;28;20594;-71
2023/05/26 10:49:20;;;;;;;2.85;1.90;;;;;;;25.85;nan;62370.38;5027005;28;20214;-71
2023/05/26 10:51:51;;;;;;;2.40;2.00;;;;;;;25.95;nan;62541.56;5032760;28;20191;-70
2023/05/26 10:54:21;;;;;;;2.58;1.75;;;;;;;25.97;nan;62449.56;5033560;28;20214;-71
2023/05/26 10:56:48;;;;;;;3.58;2.03;;;;;;;26.08;nan;62430.69;5032500;28;20258;-70
2023/05/26 10:59:22;;;;;;;2.00;1.80;;;;;;;25.75;nan;62408.72;5032240;28;20541;-71
2023/05/26 11:01:54;;;;;;;4.18;2.38;;;;;;;26.04;nan;62551.84;5032774;28;20191;-71
2023/05/26 11:04:21;;;;;;;2.70;2.00;;;;;;;25.76;nan;62409.84;5032480;28;20191;-71
2023/05/26 11:07:18;;;;;;;3.97;2.22;;;;;;;26.15;nan;62533.00;5032937;28;20186;-71
2023/05/26 11:09:59;;;;;;;5.50;2.30;;;;;;;26.31;nan;62758.38;5023613;28;20345;-70
2023/05/26 11:12:24;;;;;;;3.17;2.03;;;;;;;26.36;nan;62756.25;5032415;28;20183;-71
2023/05/26 11:14:50;;;;;;;2.42;1.90;;;;;;;26.38;nan;62427.75;5032051;28;20187;-71
2023/05/26 11:17:19;;;;;;;4.05;2.00;;;;;;;26.42;nan;62421.25;5032692;28;20179;-71
2023/05/26 11:19:54;;;;;;;3.22;2.10;;;;;;;26.36;nan;62498.81;5031949;28;20532;-71
2023/05/26 11:22:21;;;;;;;3.65;2.20;;;;;;;26.64;nan;62629.91;5033136;28;20575;-71
2023/05/26 11:24:54;;;;;;;2.53;1.77;;;;;;;26.39;nan;62478.69;5032686;28;20206;-71
2023/05/26 11:27:25;;;;;;;2.25;1.90;;;;;;;26.16;nan;62431.97;5032935;28;20206;-70
2023/05/26 11:30:00;;;;;;;2.78;1.67;;;;;;;26.01;nan;62386.03;5032686;28;20650;-72
2023/05/26 11:32:27;;;;;;;2.38;1.90;;;;;;;26.25;nan;62421.31;5032046;28;20634;-71
2023/05/26 11:34:52;;;;;;;3.38;1.88;;;;;;;25.82;nan;62484.78;5032524;28;20180;-71
2023/05/26 11:37:19;;;;;;;4.07;2.33;;;;;;;25.84;nan;62432.66;5031659;28;20576;-72
2023/05/26 11:39:45;;;;;;;2.17;1.80;;;;;;;25.62;nan;62381.31;5032632;28;20181;-71
2023/05/26 11:42:11;;;;;;;2.30;1.80;;;;;;;25.93;nan;62508.41;5032138;28;20239;-71
2023/05/26 11:44:37;;;;;;;2.90;2.05;;;;;;;26.18;nan;62467.75;5032339;28;20195;-71
2023/05/26 11:47:05;;;;;;;2.88;1.92;;;;;;;26.17;nan;62560.94;5032341;28;20175;-71
2023/05/26 11:49:31;;;;;;;3.10;2.05;;;;;;;25.98;nan;62469.03;5032257;28;20179;-70
2023/05/26 11:51:56;;;;;;;2.42;2.03;;;;;;;25.88;nan;62523.66;5032645;28;20182;-71